Terminal Aerodrome Forecast
Issued by NWS Twin Cities, MN

Home | Current Version | Previous Version | Graphics & Text | Print | Product List | Glossary On
Versions: 1 2 3 4 5 6 7 8 9 10 11 12 13 14 15 16 17 18 19 20 21 22
155
FTUS43 KMPX 260234 AAB
TAFEAU
TAF AMD
KEAU 260234Z 2603/2624 VRB03KT 1/2SM FG VV002
      TEMPO 2608/2612 1/4SM FG VV001
     FM261200 22007KT P6SM SCT050
     FM261800 23008KT P6SM FEW250=

USA.gov is the U.S. government's official web portal to all federal, state and local government web resources and services.